createdAt,value
2022-08-28T00:02:48.251Z,19.94
2022-08-28T00:05:52.500Z,20.05
2022-08-28T00:08:55.677Z,19.76
2022-08-28T00:11:58.570Z,19.93
2022-08-28T00:15:01.406Z,19.86
2022-08-28T00:18:05.157Z,19.95
2022-08-28T00:21:10.209Z,20.08
2022-08-28T00:24:13.188Z,19.99
2022-08-28T00:27:33.799Z,19.43
2022-08-28T00:30:37.825Z,19.65
2022-08-28T00:33:40.815Z,19.55
2022-08-28T00:36:45.042Z,19.67
2022-08-28T00:39:48.010Z,19.74
2022-08-28T00:42:51.372Z,19.87
2022-08-28T00:45:54.208Z,19.78
2022-08-28T00:48:59.580Z,19.70
2022-08-28T00:52:12.815Z,20.02
2022-08-28T00:55:17.069Z,20.06
2022-08-28T00:58:20.313Z,20.01
2022-08-28T01:01:23.242Z,20.29
2022-08-28T01:04:27.042Z,20.01
2022-08-28T01:07:31.447Z,19.75
2022-08-28T01:10:36.981Z,19.66
2022-08-28T01:13:41.285Z,19.43
2022-08-28T01:16:44.587Z,19.33
2022-08-28T01:19:52.389Z,19.23
2022-08-28T01:23:01.640Z,19.51
2022-08-28T01:26:06.513Z,19.43
2022-08-28T01:29:15.227Z,19.47
2022-08-28T01:32:29.542Z,19.84
2022-08-28T01:35:33.655Z,19.49
2022-08-28T01:38:36.430Z,20.70
2022-08-28T01:41:41.791Z,20.08
2022-08-28T01:44:44.742Z,20.01
2022-08-28T01:47:48.591Z,19.89
2022-08-28T01:50:54.913Z,19.94
2022-08-28T01:53:57.764Z,19.83
2022-08-28T01:57:02.084Z,19.88
2022-08-28T02:00:05.324Z,20.56
2022-08-28T02:03:08.646Z,20.93
2022-08-28T02:06:11.644Z,20.69
2022-08-28T02:09:14.949Z,20.24
2022-08-28T02:12:20.730Z,20.09
2022-08-28T02:15:25.135Z,20.10
2022-08-28T02:18:27.976Z,20.94
2022-08-28T02:21:30.878Z,21.40
2022-08-28T02:24:33.683Z,21.17
2022-08-28T02:27:38.096Z,20.96
2022-08-28T02:30:41.222Z,21.36
2022-08-28T02:33:45.008Z,22.68
2022-08-28T02:36:48.055Z,22.23
2022-08-28T02:39:51.539Z,21.50
2022-08-28T02:42:55.806Z,20.83
2022-08-28T02:45:58.814Z,20.32
2022-08-28T02:49:01.615Z,20.34
2022-08-28T02:52:04.769Z,22.32
2022-08-28T02:55:08.107Z,21.96
2022-08-28T02:58:12.396Z,21.84
2022-08-28T03:01:15.452Z,20.99
2022-08-28T03:04:18.503Z,20.65
2022-08-28T03:07:22.823Z,20.73
2022-08-28T03:10:25.668Z,20.55
2022-08-28T03:13:30.221Z,20.47
2022-08-28T03:16:34.319Z,20.49
2022-08-28T03:19:37.159Z,20.68
2022-08-28T03:22:57.575Z,20.76
2022-08-28T03:26:01.176Z,21.80
2022-08-28T03:29:05.350Z,21.94
2022-08-28T03:32:08.193Z,21.59
2022-08-28T03:35:12.121Z,21.33
2022-08-28T03:38:14.964Z,21.15
2022-08-28T03:41:18.959Z,21.31
2022-08-28T03:44:23.148Z,21.23
2022-08-28T03:47:28.362Z,20.51
2022-08-28T03:50:32.547Z,20.61
2022-08-28T03:53:36.166Z,20.78
2022-08-28T03:56:42.288Z,20.82
2022-08-28T03:59:46.470Z,20.74
2022-08-28T04:02:49.255Z,20.61
2022-08-28T04:05:52.426Z,20.73
2022-08-28T04:08:55.880Z,20.86
2022-08-28T04:12:03.635Z,20.66
2022-08-28T04:15:08.736Z,20.32
2022-08-28T04:18:12.219Z,20.65
2022-08-28T04:21:16.828Z,21.12
2022-08-28T04:24:19.616Z,21.40
2022-08-28T04:27:22.421Z,21.25
2022-08-28T04:30:26.569Z,20.50
2022-08-28T04:33:29.868Z,20.48
2022-08-28T04:36:33.688Z,21.57
2022-08-28T04:39:36.545Z,20.66
2022-08-28T04:42:40.170Z,19.65
2022-08-28T04:45:45.088Z,20.21
2022-08-28T04:48:47.936Z,19.74
2022-08-28T04:51:50.731Z,19.99
2022-08-28T04:54:53.634Z,20.15
2022-08-28T04:57:56.414Z,19.77
2022-08-28T05:01:06.165Z,19.77
2022-08-28T05:04:11.408Z,19.75
2022-08-28T05:07:14.225Z,20.47
2022-08-28T05:10:17.170Z,19.79
2022-08-28T05:13:20.841Z,20.15
2022-08-28T05:16:25.184Z,19.71
2022-08-28T05:19:28.657Z,19.80
2022-08-28T05:22:31.796Z,19.53
2022-08-28T05:25:36.263Z,19.46
2022-08-28T05:28:39.390Z,19.55
2022-08-28T05:31:43.637Z,19.30
2022-08-28T05:34:47.111Z,19.22
2022-08-28T05:37:50.447Z,19.35
2022-08-28T05:40:53.278Z,21.56
2022-08-28T05:43:56.047Z,19.99
2022-08-28T05:47:00.284Z,20.21
2022-08-28T05:50:03.316Z,21.27
2022-08-28T05:53:06.263Z,19.85
2022-08-28T05:56:09.443Z,20.96
2022-08-28T05:59:13.029Z,21.41
2022-08-28T06:02:17.548Z,20.35
2022-08-28T06:05:20.463Z,19.93
2022-08-28T06:08:23.706Z,19.99
2022-08-28T06:11:27.279Z,21.57
2022-08-28T06:14:33.638Z,21.60
2022-08-28T06:17:38.817Z,20.67
2022-08-28T06:20:42.728Z,20.80
2022-08-28T06:23:45.643Z,21.83
2022-08-28T06:26:48.532Z,20.64
2022-08-28T06:29:51.388Z,20.80
2022-08-28T06:32:55.661Z,20.97
2022-08-28T06:35:58.583Z,21.42
2022-08-28T06:39:02.161Z,21.32
2022-08-28T06:42:05.635Z,19.31
2022-08-28T06:45:09.145Z,19.93
2022-08-28T06:48:16.516Z,20.94
2022-08-28T06:51:20.528Z,21.20
2022-08-28T06:54:31.004Z,20.97
2022-08-28T06:57:33.871Z,20.89
2022-08-28T07:00:38.110Z,20.49
2022-08-28T07:03:44.268Z,21.44
2022-08-28T07:06:54.034Z,21.29
2022-08-28T07:09:57.411Z,21.19
2022-08-28T07:13:00.975Z,21.12
2022-08-28T07:16:04.232Z,21.54
2022-08-28T07:19:10.017Z,20.20
2022-08-28T07:22:13.520Z,20.72
2022-08-28T07:25:17.203Z,21.15
2022-08-28T07:28:21.819Z,21.14
2022-08-28T07:31:26.645Z,20.82
2022-08-28T07:34:31.070Z,21.19
2022-08-28T07:37:33.892Z,21.13
2022-08-28T07:40:37.886Z,21.45
2022-08-28T07:43:58.150Z,21.77
2022-08-28T07:47:02.379Z,22.30
2022-08-28T07:50:07.219Z,22.81
2022-08-28T07:53:10.007Z,22.67
2022-08-28T07:56:13.174Z,21.98
2022-08-28T07:59:17.579Z,21.74
2022-08-28T08:02:22.373Z,21.28
2022-08-28T08:05:26.679Z,21.15
2022-08-28T08:08:30.231Z,21.56
2022-08-28T08:11:34.772Z,21.56
2022-08-28T08:14:38.111Z,21.43
2022-08-28T08:17:41.322Z,21.39
2022-08-28T08:20:45.494Z,21.60
2022-08-28T08:23:49.097Z,21.95
2022-08-28T08:27:00.331Z,22.06
2022-08-28T08:30:03.770Z,22.21
2022-08-28T08:33:07.628Z,22.08
2022-08-28T08:36:13.319Z,21.94
2022-08-28T08:39:16.392Z,22.12
2022-08-28T08:42:25.144Z,22.24
2022-08-28T08:45:29.595Z,23.06
2022-08-28T08:48:35.217Z,24.57
2022-08-28T08:51:41.757Z,24.35
2022-08-28T08:54:45.821Z,24.25
2022-08-28T08:57:52.677Z,23.94
2022-08-28T09:00:59.395Z,24.86
2022-08-28T09:04:05.215Z,24.54
2022-08-28T09:07:15.369Z,25.03
2022-08-28T09:10:18.292Z,24.44
2022-08-28T09:13:25.606Z,24.38
2022-08-28T09:16:31.314Z,23.90
2022-08-28T09:19:34.662Z,24.30
2022-08-28T09:22:40.272Z,24.75
2022-08-28T09:25:54.203Z,23.87
2022-08-28T09:29:01.311Z,22.74
2022-08-28T09:32:18.063Z,23.18
2022-08-28T09:35:27.283Z,22.12
2022-08-28T09:38:32.926Z,21.56
2022-08-28T09:41:57.248Z,22.40
2022-08-28T09:45:02.154Z,22.86
2022-08-28T09:48:20.440Z,22.95
2022-08-28T09:51:29.334Z,21.99
2022-08-28T09:54:35.508Z,21.58
2022-08-28T09:57:38.947Z,21.57
2022-08-28T10:00:45.003Z,21.43
2022-08-28T10:03:53.000Z,21.55
2022-08-28T10:06:59.488Z,21.47
2022-08-28T10:10:17.069Z,21.57
2022-08-28T10:13:23.915Z,21.84
2022-08-28T10:16:32.084Z,21.52
2022-08-28T10:19:41.312Z,20.96
2022-08-28T10:22:50.432Z,21.26
2022-08-28T10:25:58.562Z,21.53
2022-08-28T10:29:07.989Z,21.06
2022-08-28T10:32:21.420Z,21.53
2022-08-28T10:35:25.507Z,21.83
2022-08-28T10:38:33.927Z,22.04
2022-08-28T10:41:42.320Z,21.77
2022-08-28T10:44:50.491Z,22.38
2022-08-28T10:47:56.816Z,22.77
2022-08-28T10:51:02.835Z,22.93
2022-08-28T10:54:08.303Z,24.36
2022-08-28T10:57:19.050Z,26.29
2022-08-28T11:00:23.137Z,25.04
2022-08-28T11:03:35.911Z,26.12
2022-08-28T11:06:42.733Z,26.37
2022-08-28T11:09:48.087Z,26.87
2022-08-28T11:12:53.559Z,28.38
2022-08-28T11:15:56.416Z,33.66
2022-08-28T11:19:07.979Z,32.31
2022-08-28T11:22:12.473Z,30.24
2022-08-28T11:25:17.424Z,28.84
2022-08-28T11:28:41.982Z,29.50
2022-08-28T11:31:44.852Z,32.86
2022-08-28T11:35:00.114Z,28.69
2022-08-28T11:38:02.978Z,32.39
2022-08-28T11:41:11.558Z,32.06
2022-08-28T11:44:40.471Z,32.66
2022-08-28T11:47:48.195Z,32.06
2022-08-28T11:50:54.835Z,32.33
2022-08-28T11:54:02.804Z,32.51
2022-08-28T11:57:08.755Z,33.40
2022-08-28T12:00:24.052Z,32.94
2022-08-28T12:03:28.650Z,33.80
2022-08-28T12:06:50.256Z,33.22
2022-08-28T12:09:53.288Z,32.65
2022-08-28T12:12:57.200Z,31.94
2022-08-28T12:16:06.696Z,31.03
2022-08-28T12:19:10.369Z,31.39
2022-08-28T12:22:14.080Z,29.40
2022-08-28T12:25:24.532Z,29.87
2022-08-28T12:28:31.871Z,29.51
2022-08-28T12:32:13.604Z,28.51
2022-08-28T12:35:19.674Z,28.62
2022-08-28T12:38:26.372Z,29.24
2022-08-28T12:41:29.312Z,29.10
2022-08-28T12:44:33.858Z,28.59
2022-08-28T12:47:37.603Z,27.96
2022-08-28T12:50:42.296Z,27.92
2022-08-28T12:53:46.367Z,27.56
2022-08-28T12:56:49.225Z,27.38
2022-08-28T12:59:53.544Z,27.42
2022-08-28T13:02:57.956Z,27.00
2022-08-28T13:06:04.676Z,27.19
2022-08-28T13:09:08.955Z,27.17
2022-08-28T13:12:18.250Z,27.03
2022-08-28T13:15:36.044Z,27.08
2022-08-28T13:18:40.973Z,26.92
2022-08-28T13:21:59.457Z,26.48
2022-08-28T13:25:02.954Z,26.83
2022-08-28T13:28:12.659Z,26.25
2022-08-28T13:31:23.348Z,25.81
2022-08-28T13:34:27.083Z,25.93
2022-08-28T13:37:43.588Z,25.47
2022-08-28T13:41:03.947Z,25.39
2022-08-28T13:44:07.513Z,26.09
2022-08-28T13:47:10.418Z,25.53
2022-08-28T13:50:13.361Z,25.54
2022-08-28T13:53:18.170Z,24.84
2022-08-28T13:56:21.908Z,24.49
2022-08-28T13:59:24.790Z,24.64
2022-08-28T14:02:45.483Z,24.43
2022-08-28T14:05:48.526Z,24.31
2022-08-28T14:08:52.788Z,24.17
2022-08-28T14:11:56.999Z,24.12
2022-08-28T14:15:00.126Z,24.03
2022-08-28T14:18:02.990Z,23.84
2022-08-28T14:21:06.446Z,23.89
2022-08-28T14:24:10.936Z,23.88
2022-08-28T14:27:13.764Z,24.06
2022-08-28T14:30:17.136Z,24.24
2022-08-28T14:33:22.143Z,24.03
2022-08-28T14:36:26.725Z,23.76
2022-08-28T14:39:32.320Z,23.68
2022-08-28T14:42:35.175Z,23.36
2022-08-28T14:45:44.005Z,23.03
2022-08-28T14:48:50.559Z,22.84
2022-08-28T14:51:54.233Z,22.64
2022-08-28T14:54:59.349Z,22.55
2022-08-28T15:01:05.831Z,22.85
2022-08-28T15:04:13.784Z,22.54
2022-08-28T15:07:16.912Z,22.80
2022-08-28T15:10:24.653Z,21.95
2022-08-28T15:13:31.439Z,22.34
2022-08-28T15:16:40.765Z,22.07
2022-08-28T15:19:43.975Z,21.75
2022-08-28T15:22:48.610Z,21.71
2022-08-28T15:26:00.464Z,21.68
2022-08-28T15:29:03.806Z,21.47
2022-08-28T15:32:07.803Z,22.19
2022-08-28T15:35:11.454Z,21.51
2022-08-28T15:38:14.436Z,21.48
2022-08-28T15:41:26.810Z,21.71
2022-08-28T15:44:29.721Z,22.02
2022-08-28T15:47:32.836Z,21.69
2022-08-28T15:50:36.325Z,21.77
2022-08-28T15:53:40.063Z,21.88
2022-08-28T15:56:44.225Z,23.25
2022-08-28T15:59:50.630Z,23.54
2022-08-28T16:02:59.923Z,23.51
2022-08-28T16:06:03.092Z,23.30
2022-08-28T16:09:06.573Z,23.15
2022-08-28T16:12:10.780Z,23.70
2022-08-28T16:15:16.105Z,22.86
2022-08-28T16:18:23.599Z,23.07
2022-08-28T16:21:27.526Z,23.37
2022-08-28T16:24:31.511Z,23.44
2022-08-28T16:27:35.644Z,22.93
2022-08-28T16:30:43.934Z,21.75
2022-08-28T16:33:47.443Z,21.92
2022-08-28T16:36:51.717Z,22.56
2022-08-28T16:39:54.890Z,21.34
2022-08-28T16:43:02.366Z,20.54
2022-08-28T16:46:09.662Z,21.52
2022-08-28T16:49:13.264Z,21.55
2022-08-28T16:52:16.763Z,21.36
2022-08-28T16:55:21.303Z,20.92
2022-08-28T16:58:26.895Z,20.86
2022-08-28T17:01:29.836Z,21.00
2022-08-28T17:04:34.241Z,21.13
2022-08-28T17:07:37.290Z,20.97
2022-08-28T17:10:41.909Z,20.51
2022-08-28T17:13:48.767Z,20.54
2022-08-28T17:16:54.424Z,19.25
2022-08-28T17:20:01.242Z,19.09
2022-08-28T17:23:05.213Z,19.45
2022-08-28T17:26:10.548Z,19.16
2022-08-28T17:29:22.455Z,18.73
2022-08-28T17:32:27.673Z,19.09
2022-08-28T17:35:33.197Z,18.89
2022-08-28T17:38:45.075Z,18.96
2022-08-28T17:41:49.150Z,18.97
2022-08-28T17:44:53.766Z,19.14
2022-08-28T17:47:58.250Z,19.20
2022-08-28T17:51:03.508Z,19.07
2022-08-28T17:54:07.098Z,19.25
2022-08-28T17:57:11.940Z,18.34
2022-08-28T18:00:18.415Z,17.93
2022-08-28T18:03:23.058Z,18.10
2022-08-28T18:06:25.965Z,17.91
2022-08-28T18:09:28.883Z,18.11
2022-08-28T18:12:32.878Z,18.13
2022-08-28T18:15:41.820Z,17.77
2022-08-28T18:18:47.511Z,17.83
2022-08-28T18:21:53.279Z,17.67
2022-08-28T18:24:57.212Z,17.77
2022-08-28T18:28:00.454Z,18.37
2022-08-28T18:31:06.976Z,18.62
2022-08-28T18:34:12.116Z,18.96
2022-08-28T18:37:16.827Z,18.65
2022-08-28T18:40:37.302Z,18.58
2022-08-28T18:43:49.056Z,19.92
2022-08-28T18:46:54.866Z,20.45
2022-08-28T18:49:58.392Z,19.67
2022-08-28T18:53:02.742Z,18.81
2022-08-28T18:56:06.510Z,18.43
2022-08-28T18:59:10.376Z,18.35
2022-08-28T19:02:18.149Z,18.41
2022-08-28T19:05:23.345Z,18.42
2022-08-28T19:08:27.161Z,18.44
2022-08-28T19:11:31.948Z,18.44
2022-08-28T19:14:40.197Z,18.21
2022-08-28T19:17:55.608Z,18.49
2022-08-28T19:21:06.030Z,18.04
2022-08-28T19:24:09.636Z,18.01
2022-08-28T19:27:13.900Z,17.89
2022-08-28T19:30:18.322Z,18.08
2022-08-28T19:33:28.329Z,18.06
2022-08-28T19:36:33.750Z,18.32
2022-08-28T19:39:37.069Z,18.51
2022-08-28T19:42:39.935Z,18.45
2022-08-28T19:45:44.945Z,18.48
2022-08-28T19:48:49.471Z,18.34
2022-08-28T19:51:55.402Z,18.38
2022-08-28T19:54:58.248Z,18.03
2022-08-28T19:58:04.164Z,17.95
2022-08-28T20:01:07.197Z,18.19
2022-08-28T20:04:17.553Z,18.01
2022-08-28T20:07:20.940Z,18.29
2022-08-28T20:10:25.187Z,18.52
2022-08-28T20:13:28.042Z,18.14
2022-08-28T20:16:31.041Z,18.28
2022-08-28T20:19:39.197Z,18.35
2022-08-28T20:22:42.509Z,18.40
2022-08-28T20:25:47.583Z,18.53
2022-08-28T20:28:52.667Z,18.66
2022-08-28T20:31:55.562Z,19.03
2022-08-28T20:34:59.915Z,18.87
2022-08-28T20:38:03.296Z,18.74
2022-08-28T20:41:06.932Z,18.32
2022-08-28T20:44:12.773Z,18.40
2022-08-28T20:47:18.863Z,18.30
2022-08-28T20:50:23.509Z,18.14
2022-08-28T20:53:37.397Z,18.02
2022-08-28T20:56:40.842Z,17.64
2022-08-28T20:59:44.712Z,17.75
2022-08-28T21:02:47.678Z,17.47
2022-08-28T21:05:53.113Z,17.65
2022-08-28T21:08:56.578Z,17.62
2022-08-28T21:12:05.577Z,17.48
2022-08-28T21:15:18.841Z,17.39
2022-08-28T21:18:31.102Z,17.55
2022-08-28T21:21:38.151Z,17.60
2022-08-28T21:24:40.970Z,17.46
2022-08-28T21:27:43.907Z,17.58
2022-08-28T21:30:46.829Z,17.32
2022-08-28T21:33:49.674Z,17.13
2022-08-28T21:36:54.336Z,17.30
2022-08-28T21:39:57.303Z,17.21
2022-08-28T21:43:00.148Z,16.84
2022-08-28T21:46:04.379Z,16.80
2022-08-28T21:49:09.919Z,16.86
2022-08-28T21:52:19.455Z,17.04
2022-08-28T21:55:22.415Z,17.04
2022-08-28T21:58:25.234Z,16.83
2022-08-28T22:01:28.064Z,16.49
2022-08-28T22:04:31.204Z,16.50
2022-08-28T22:07:35.347Z,16.63
2022-08-28T22:10:40.458Z,16.38
2022-08-28T22:13:43.549Z,16.42
2022-08-28T22:16:46.619Z,16.61
2022-08-28T22:19:49.555Z,16.48
2022-08-28T22:23:11.117Z,16.64
2022-08-28T22:26:15.163Z,16.40
2022-08-28T22:29:17.992Z,16.21
2022-08-28T22:32:25.527Z,16.23
2022-08-28T22:35:28.528Z,16.21
2022-08-28T22:38:32.900Z,16.17
2022-08-28T22:41:37.573Z,16.31
2022-08-28T22:44:40.462Z,16.55
2022-08-28T22:47:43.546Z,16.19
2022-08-28T22:50:47.428Z,16.15
2022-08-28T22:53:54.442Z,15.75
2022-08-28T22:56:57.195Z,15.81
2022-08-28T23:00:03.175Z,15.72
2022-08-28T23:03:06.789Z,16.02
2022-08-28T23:06:09.691Z,16.20
2022-08-28T23:09:13.821Z,16.12
2022-08-28T23:12:16.737Z,15.00
2022-08-28T23:15:21.620Z,15.95
2022-08-28T23:18:24.404Z,15.25
2022-08-28T23:21:28.544Z,15.90
2022-08-28T23:24:32.766Z,16.24
2022-08-28T23:27:36.786Z,16.23
2022-08-28T23:30:43.980Z,16.29
2022-08-28T23:33:51.228Z,16.04
2022-08-28T23:36:54.422Z,16.29
2022-08-28T23:39:59.353Z,15.96
2022-08-28T23:43:04.263Z,15.89
2022-08-28T23:46:07.464Z,16.83
2022-08-28T23:49:10.625Z,17.06
2022-08-28T23:52:13.419Z,17.23
2022-08-28T23:55:18.325Z,17.21
2022-08-28T23:58:22.450Z,17.17
